sensor_id;sensor_type;location;lat;lon;timestamp;temperature;humidity
2409;DHT22;8463;48.094;7.970;2024-03-25T00:00:23;5.90;1.00
2409;DHT22;8463;48.094;7.970;2024-03-25T00:02:50;6.00;1.00
2409;DHT22;8463;48.094;7.970;2024-03-25T00:05:16;6.00;1.00
2409;DHT22;8463;48.094;7.970;2024-03-25T00:07:48;6.00;1.00
2409;DHT22;8463;48.094;7.970;2024-03-25T00:10:14;6.00;1.00
2409;DHT22;8463;48.094;7.970;2024-03-25T00:12:40;6.00;1.00
2409;DHT22;8463;48.094;7.970;2024-03-25T00:15:06;6.00;1.00
2409;DHT22;8463;48.094;7.970;2024-03-25T00:17:32;6.10;1.00
2409;DHT22;8463;48.094;7.970;2024-03-25T00:19:58;6.10;1.00
2409;DHT22;8463;48.094;7.970;2024-03-25T00:22:24;6.00;1.00
2409;DHT22;8463;48.094;7.970;2024-03-25T00:24:53;6.00;1.00
2409;DHT22;8463;48.094;7.970;2024-03-25T00:27:19;6.00;1.00
2409;DHT22;8463;48.094;7.970;2024-03-25T00:29:44;6.00;1.00
2409;DHT22;8463;48.094;7.970;2024-03-25T00:32:10;5.90;1.00
2409;DHT22;8463;48.094;7.970;2024-03-25T00:34:40;5.90;1.00
2409;DHT22;8463;48.094;7.970;2024-03-25T00:37:06;5.90;1.00
2409;DHT22;8463;48.094;7.970;2024-03-25T00:39:31;5.80;1.00
2409;DHT22;8463;48.094;7.970;2024-03-25T00:42:00;5.90;1.00
2409;DHT22;8463;48.094;7.970;2024-03-25T00:44:26;5.90;1.00
2409;DHT22;8463;48.094;7.970;2024-03-25T00:46:52;5.90;1.00
2409;DHT22;8463;48.094;7.970;2024-03-25T00:49:17;5.90;1.00
2409;DHT22;8463;48.094;7.970;2024-03-25T00:51:47;5.90;1.00
2409;DHT22;8463;48.094;7.970;2024-03-25T00:54:12;5.90;1.00
2409;DHT22;8463;48.094;7.970;2024-03-25T00:56:38;5.90;1.00
2409;DHT22;8463;48.094;7.970;2024-03-25T00:59:03;5.90;1.00
2409;DHT22;8463;48.094;7.970;2024-03-25T01:01:31;6.00;1.00
2409;DHT22;8463;48.094;7.970;2024-03-25T01:03:58;6.00;1.00
2409;DHT22;8463;48.094;7.970;2024-03-25T01:06:23;6.00;1.00
2409;DHT22;8463;48.094;7.970;2024-03-25T01:08:51;6.00;1.00
2409;DHT22;8463;48.094;7.970;2024-03-25T01:11:17;6.00;1.00
2409;DHT22;8463;48.094;7.970;2024-03-25T01:13:43;6.00;1.00
2409;DHT22;8463;48.094;7.970;2024-03-25T01:16:09;5.90;1.00
2409;DHT22;8463;48.094;7.970;2024-03-25T01:18:35;5.90;1.00
2409;DHT22;8463;48.094;7.970;2024-03-25T01:21:01;5.90;1.00
2409;DHT22;8463;48.094;7.970;2024-03-25T01:23:29;5.90;1.00
2409;DHT22;8463;48.094;7.970;2024-03-25T01:25:57;5.90;1.00
2409;DHT22;8463;48.094;7.970;2024-03-25T01:28:22;5.90;1.00
2409;DHT22;8463;48.094;7.970;2024-03-25T01:30:48;5.80;1.00
2409;DHT22;8463;48.094;7.970;2024-03-25T01:33:14;5.90;1.00
2409;DHT22;8463;48.094;7.970;2024-03-25T01:35:40;5.80;1.00
2409;DHT22;8463;48.094;7.970;2024-03-25T01:38:06;5.80;1.00
2409;DHT22;8463;48.094;7.970;2024-03-25T01:40:31;5.70;1.00
2409;DHT22;8463;48.094;7.970;2024-03-25T01:43:02;5.60;1.00
2409;DHT22;8463;48.094;7.970;2024-03-25T01:45:33;5.70;1.00
2409;DHT22;8463;48.094;7.970;2024-03-25T01:48:04;5.70;1.00
2409;DHT22;8463;48.094;7.970;2024-03-25T01:50:34;5.70;1.00
2409;DHT22;8463;48.094;7.970;2024-03-25T01:53:01;5.70;1.00
2409;DHT22;8463;48.094;7.970;2024-03-25T01:55:29;5.60;1.00
2409;DHT22;8463;48.094;7.970;2024-03-25T01:57:55;5.70;1.00
2409;DHT22;8463;48.094;7.970;2024-03-25T02:00:22;5.70;1.00
2409;DHT22;8463;48.094;7.970;2024-03-25T02:02:49;5.80;1.00
2409;DHT22;8463;48.094;7.970;2024-03-25T02:05:17;5.80;1.00
2409;DHT22;8463;48.094;7.970;2024-03-25T02:07:43;5.80;1.00
2409;DHT22;8463;48.094;7.970;2024-03-25T02:10:10;5.80;1.00
2409;DHT22;8463;48.094;7.970;2024-03-25T02:12:40;5.80;1.00
2409;DHT22;8463;48.094;7.970;2024-03-25T02:15:07;5.80;1.00
2409;DHT22;8463;48.094;7.970;2024-03-25T02:17:33;5.80;1.00
2409;DHT22;8463;48.094;7.970;2024-03-25T02:20:00;5.80;1.00
2409;DHT22;8463;48.094;7.970;2024-03-25T02:22:25;5.80;1.00
2409;DHT22;8463;48.094;7.970;2024-03-25T02:24:52;5.80;1.00
2409;DHT22;8463;48.094;7.970;2024-03-25T02:27:19;5.80;1.00
2409;DHT22;8463;48.094;7.970;2024-03-25T02:29:44;5.80;1.00
2409;DHT22;8463;48.094;7.970;2024-03-25T02:32:11;5.70;1.00
2409;DHT22;8463;48.094;7.970;2024-03-25T02:34:43;5.80;1.00
2409;DHT22;8463;48.094;7.970;2024-03-25T02:37:10;5.80;1.00
2409;DHT22;8463;48.094;7.970;2024-03-25T02:39:39;5.80;1.00
2409;DHT22;8463;48.094;7.970;2024-03-25T02:42:05;5.80;1.00
2409;DHT22;8463;48.094;7.970;2024-03-25T02:44:31;5.80;1.00
2409;DHT22;8463;48.094;7.970;2024-03-25T02:46:57;5.80;1.00
2409;DHT22;8463;48.094;7.970;2024-03-25T02:49:23;5.80;1.00
2409;DHT22;8463;48.094;7.970;2024-03-25T02:51:51;5.80;1.00
2409;DHT22;8463;48.094;7.970;2024-03-25T02:54:17;5.80;1.00
2409;DHT22;8463;48.094;7.970;2024-03-25T02:56:43;5.80;1.00
2409;DHT22;8463;48.094;7.970;2024-03-25T02:59:09;5.80;1.00
2409;DHT22;8463;48.094;7.970;2024-03-25T03:01:35;5.70;1.00
2409;DHT22;8463;48.094;7.970;2024-03-25T03:04:01;5.60;1.00
2409;DHT22;8463;48.094;7.970;2024-03-25T03:06:26;5.60;1.00
2409;DHT22;8463;48.094;7.970;2024-03-25T03:08:52;5.50;1.00
2409;DHT22;8463;48.094;7.970;2024-03-25T03:11:20;5.50;1.00
2409;DHT22;8463;48.094;7.970;2024-03-25T03:13:45;5.50;1.00
2409;DHT22;8463;48.094;7.970;2024-03-25T03:16:11;5.50;1.00
2409;DHT22;8463;48.094;7.970;2024-03-25T03:18:37;5.50;1.00
2409;DHT22;8463;48.094;7.970;2024-03-25T03:21:03;5.60;1.00
2409;DHT22;8463;48.094;7.970;2024-03-25T03:23:29;5.60;1.00
2409;DHT22;8463;48.094;7.970;2024-03-25T03:25:56;5.60;1.00
2409;DHT22;8463;48.094;7.970;2024-03-25T03:28:25;5.60;1.00
2409;DHT22;8463;48.094;7.970;2024-03-25T03:30:51;5.70;1.00
2409;DHT22;8463;48.094;7.970;2024-03-25T03:33:16;5.70;1.00
2409;DHT22;8463;48.094;7.970;2024-03-25T03:35:43;5.70;1.00
2409;DHT22;8463;48.094;7.970;2024-03-25T03:38:08;5.70;1.00
2409;DHT22;8463;48.094;7.970;2024-03-25T03:40:34;5.70;1.00
2409;DHT22;8463;48.094;7.970;2024-03-25T03:42:59;5.60;1.00
2409;DHT22;8463;48.094;7.970;2024-03-25T03:45:25;5.60;1.00
2409;DHT22;8463;48.094;7.970;2024-03-25T03:47:51;5.70;1.00
2409;DHT22;8463;48.094;7.970;2024-03-25T03:50:17;5.70;1.00
2409;DHT22;8463;48.094;7.970;2024-03-25T03:52:42;5.70;1.00
2409;DHT22;8463;48.094;7.970;2024-03-25T03:55:08;5.70;1.00
2409;DHT22;8463;48.094;7.970;2024-03-25T03:57:34;5.60;1.00
2409;DHT22;8463;48.094;7.970;2024-03-25T04:00:02;5.60;1.00
2409;DHT22;8463;48.094;7.970;2024-03-25T04:02:28;5.70;1.00
2409;DHT22;8463;48.094;7.970;2024-03-25T04:04:54;5.70;1.00
2409;DHT22;8463;48.094;7.970;2024-03-25T04:07:22;5.50;1.00
2409;DHT22;8463;48.094;7.970;2024-03-25T04:09:57;5.50;1.00
2409;DHT22;8463;48.094;7.970;2024-03-25T04:12:23;5.50;1.00
2409;DHT22;8463;48.094;7.970;2024-03-25T04:14:49;5.60;1.00
2409;DHT22;8463;48.094;7.970;2024-03-25T04:17:20;5.70;1.00
2409;DHT22;8463;48.094;7.970;2024-03-25T04:19:47;5.60;1.00
2409;DHT22;8463;48.094;7.970;2024-03-25T04:22:12;5.60;1.00
2409;DHT22;8463;48.094;7.970;2024-03-25T04:24:38;5.60;1.00
2409;DHT22;8463;48.094;7.970;2024-03-25T04:27:03;5.60;1.00
2409;DHT22;8463;48.094;7.970;2024-03-25T04:29:31;5.60;1.00
2409;DHT22;8463;48.094;7.970;2024-03-25T04:31:59;5.60;1.00
2409;DHT22;8463;48.094;7.970;2024-03-25T04:34:25;5.60;1.00
2409;DHT22;8463;48.094;7.970;2024-03-25T04:36:50;5.60;1.00
2409;DHT22;8463;48.094;7.970;2024-03-25T04:39:16;5.60;1.00
2409;DHT22;8463;48.094;7.970;2024-03-25T04:41:43;5.60;1.00
2409;DHT22;8463;48.094;7.970;2024-03-25T04:44:09;5.60;1.00
2409;DHT22;8463;48.094;7.970;2024-03-25T04:46:35;5.60;1.00
2409;DHT22;8463;48.094;7.970;2024-03-25T04:49:02;5.50;1.00
2409;DHT22;8463;48.094;7.970;2024-03-25T04:51:29;5.30;1.00
2409;DHT22;8463;48.094;7.970;2024-03-25T04:53:55;5.20;1.00
2409;DHT22;8463;48.094;7.970;2024-03-25T04:56:22;5.20;1.00
2409;DHT22;8463;48.094;7.970;2024-03-25T04:58:47;4.90;1.00
2409;DHT22;8463;48.094;7.970;2024-03-25T05:01:13;4.80;1.00
2409;DHT22;8463;48.094;7.970;2024-03-25T05:03:39;4.90;1.00
2409;DHT22;8463;48.094;7.970;2024-03-25T05:06:05;4.90;1.00
2409;DHT22;8463;48.094;7.970;2024-03-25T05:08:31;4.90;1.00
2409;DHT22;8463;48.094;7.970;2024-03-25T05:10:56;4.90;1.00
2409;DHT22;8463;48.094;7.970;2024-03-25T05:13:22;4.90;1.00
2409;DHT22;8463;48.094;7.970;2024-03-25T05:15:51;4.80;1.00
2409;DHT22;8463;48.094;7.970;2024-03-25T05:18:18;4.80;1.00
2409;DHT22;8463;48.094;7.970;2024-03-25T05:20:43;4.80;1.00
2409;DHT22;8463;48.094;7.970;2024-03-25T05:23:11;4.70;1.00
2409;DHT22;8463;48.094;7.970;2024-03-25T05:25:37;4.70;1.00
2409;DHT22;8463;48.094;7.970;2024-03-25T05:28:04;4.70;1.00
2409;DHT22;8463;48.094;7.970;2024-03-25T05:30:30;4.70;1.00
2409;DHT22;8463;48.094;7.970;2024-03-25T05:32:55;4.80;1.00
2409;DHT22;8463;48.094;7.970;2024-03-25T05:35:21;4.80;1.00
2409;DHT22;8463;48.094;7.970;2024-03-25T05:37:49;4.60;1.00
2409;DHT22;8463;48.094;7.970;2024-03-25T05:40:15;4.60;1.00
2409;DHT22;8463;48.094;7.970;2024-03-25T05:42:44;4.70;1.00
2409;DHT22;8463;48.094;7.970;2024-03-25T05:45:10;5.60;1.00
2409;DHT22;8463;48.094;7.970;2024-03-25T05:47:35;5.50;1.00
2409;DHT22;8463;48.094;7.970;2024-03-25T05:50:01;5.40;1.00
2409;DHT22;8463;48.094;7.970;2024-03-25T05:52:29;5.20;1.00
2409;DHT22;8463;48.094;7.970;2024-03-25T05:54:55;5.10;1.00
2409;DHT22;8463;48.094;7.970;2024-03-25T05:57:20;5.00;1.00
2409;DHT22;8463;48.094;7.970;2024-03-25T05:59:46;4.90;1.00
2409;DHT22;8463;48.094;7.970;2024-03-25T06:02:11;4.90;1.00
2409;DHT22;8463;48.094;7.970;2024-03-25T06:04:37;4.70;1.00
2409;DHT22;8463;48.094;7.970;2024-03-25T06:07:03;4.70;1.00
2409;DHT22;8463;48.094;7.970;2024-03-25T06:09:29;4.60;1.00
2409;DHT22;8463;48.094;7.970;2024-03-25T06:11:57;4.50;1.00
2409;DHT22;8463;48.094;7.970;2024-03-25T06:14:22;4.50;1.00
2409;DHT22;8463;48.094;7.970;2024-03-25T06:16:48;4.50;1.00
2409;DHT22;8463;48.094;7.970;2024-03-25T06:19:13;4.50;1.00
2409;DHT22;8463;48.094;7.970;2024-03-25T06:21:39;4.40;1.00
2409;DHT22;8463;48.094;7.970;2024-03-25T06:24:05;4.30;1.00
2409;DHT22;8463;48.094;7.970;2024-03-25T06:26:31;4.30;1.00
2409;DHT22;8463;48.094;7.970;2024-03-25T06:28:56;4.30;1.00
2409;DHT22;8463;48.094;7.970;2024-03-25T06:31:22;4.30;1.00
2409;DHT22;8463;48.094;7.970;2024-03-25T06:34:06;4.10;1.00
2409;DHT22;8463;48.094;7.970;2024-03-25T06:36:43;5.10;1.00
2409;DHT22;8463;48.094;7.970;2024-03-25T06:39:10;5.60;1.00
2409;DHT22;8463;48.094;7.970;2024-03-25T06:41:36;5.50;1.00
2409;DHT22;8463;48.094;7.970;2024-03-25T06:44:01;5.60;1.00
2409;DHT22;8463;48.094;7.970;2024-03-25T06:46:27;5.50;1.00
2409;DHT22;8463;48.094;7.970;2024-03-25T06:48:53;5.30;1.00
2409;DHT22;8463;48.094;7.970;2024-03-25T06:51:18;5.30;1.00
2409;DHT22;8463;48.094;7.970;2024-03-25T06:53:44;5.30;1.00
2409;DHT22;8463;48.094;7.970;2024-03-25T06:56:10;5.20;1.00
2409;DHT22;8463;48.094;7.970;2024-03-25T06:58:35;5.00;1.00
2409;DHT22;8463;48.094;7.970;2024-03-25T07:01:06;5.00;1.00
2409;DHT22;8463;48.094;7.970;2024-03-25T07:03:33;5.40;1.00
2409;DHT22;8463;48.094;7.970;2024-03-25T07:06:00;5.60;1.00
2409;DHT22;8463;48.094;7.970;2024-03-25T07:08:27;5.90;1.00
2409;DHT22;8463;48.094;7.970;2024-03-25T07:10:53;6.40;1.00
2409;DHT22;8463;48.094;7.970;2024-03-25T07:13:19;6.00;1.00
2409;DHT22;8463;48.094;7.970;2024-03-25T07:15:45;6.00;1.00
2409;DHT22;8463;48.094;7.970;2024-03-25T07:18:11;6.00;1.00
2409;DHT22;8463;48.094;7.970;2024-03-25T07:20:39;6.10;1.00
2409;DHT22;8463;48.094;7.970;2024-03-25T07:23:05;6.20;1.00
2409;DHT22;8463;48.094;7.970;2024-03-25T07:25:30;6.10;1.00
2409;DHT22;8463;48.094;7.970;2024-03-25T07:27:56;6.20;1.00
2409;DHT22;8463;48.094;7.970;2024-03-25T07:30:22;6.40;1.00
2409;DHT22;8463;48.094;7.970;2024-03-25T07:32:51;6.50;1.00
2409;DHT22;8463;48.094;7.970;2024-03-25T07:35:16;6.70;1.00
2409;DHT22;8463;48.094;7.970;2024-03-25T07:37:44;6.90;1.00
2409;DHT22;8463;48.094;7.970;2024-03-25T07:40:10;7.00;1.00
2409;DHT22;8463;48.094;7.970;2024-03-25T07:42:39;7.00;1.00
2409;DHT22;8463;48.094;7.970;2024-03-25T07:45:05;7.20;1.00
2409;DHT22;8463;48.094;7.970;2024-03-25T07:47:32;7.40;1.00
2409;DHT22;8463;48.094;7.970;2024-03-25T07:49:58;7.60;1.00
2409;DHT22;8463;48.094;7.970;2024-03-25T07:52:25;7.80;1.00
2409;DHT22;8463;48.094;7.970;2024-03-25T07:54:50;8.00;1.00
2409;DHT22;8463;48.094;7.970;2024-03-25T07:57:17;8.20;1.00
2409;DHT22;8463;48.094;7.970;2024-03-25T07:59:43;8.30;1.00
2409;DHT22;8463;48.094;7.970;2024-03-25T08:02:09;8.10;1.00
2409;DHT22;8463;48.094;7.970;2024-03-25T08:04:34;8.20;1.00
2409;DHT22;8463;48.094;7.970;2024-03-25T08:07:00;8.40;1.00
2409;DHT22;8463;48.094;7.970;2024-03-25T08:09:26;8.50;1.00
2409;DHT22;8463;48.094;7.970;2024-03-25T08:11:51;8.70;1.00
2409;DHT22;8463;48.094;7.970;2024-03-25T08:14:17;9.00;1.00
2409;DHT22;8463;48.094;7.970;2024-03-25T08:16:42;9.20;1.00
2409;DHT22;8463;48.094;7.970;2024-03-25T08:19:08;9.20;1.00
2409;DHT22;8463;48.094;7.970;2024-03-25T08:21:34;9.30;1.00
2409;DHT22;8463;48.094;7.970;2024-03-25T08:24:00;9.60;1.00
2409;DHT22;8463;48.094;7.970;2024-03-25T08:26:25;9.80;1.00
2409;DHT22;8463;48.094;7.970;2024-03-25T08:28:51;10.10;1.00
2409;DHT22;8463;48.094;7.970;2024-03-25T08:31:16;10.20;1.00
2409;DHT22;8463;48.094;7.970;2024-03-25T08:33:42;10.30;1.00
2409;DHT22;8463;48.094;7.970;2024-03-25T08:36:08;10.40;1.00
2409;DHT22;8463;48.094;7.970;2024-03-25T08:38:34;10.30;1.00
2409;DHT22;8463;48.094;7.970;2024-03-25T08:40:59;10.30;1.00
2409;DHT22;8463;48.094;7.970;2024-03-25T08:43:25;10.50;1.00
2409;DHT22;8463;48.094;7.970;2024-03-25T08:45:51;10.50;1.00
2409;DHT22;8463;48.094;7.970;2024-03-25T08:48:16;10.60;1.00
2409;DHT22;8463;48.094;7.970;2024-03-25T08:50:42;10.90;1.00
2409;DHT22;8463;48.094;7.970;2024-03-25T08:53:08;11.10;1.00
2409;DHT22;8463;48.094;7.970;2024-03-25T08:55:33;11.20;1.00
2409;DHT22;8463;48.094;7.970;2024-03-25T08:57:59;11.10;1.00
2409;DHT22;8463;48.094;7.970;2024-03-25T09:00:28;11.00;1.00
2409;DHT22;8463;48.094;7.970;2024-03-25T09:02:54;11.00;1.00
2409;DHT22;8463;48.094;7.970;2024-03-25T09:05:23;10.90;1.00
2409;DHT22;8463;48.094;7.970;2024-03-25T09:07:51;11.00;1.00
2409;DHT22;8463;48.094;7.970;2024-03-25T09:10:20;11.00;1.00
2409;DHT22;8463;48.094;7.970;2024-03-25T09:13:05;10.90;1.00
2409;DHT22;8463;48.094;7.970;2024-03-25T09:15:30;11.00;1.00
2409;DHT22;8463;48.094;7.970;2024-03-25T09:17:56;11.30;1.00
2409;DHT22;8463;48.094;7.970;2024-03-25T09:20:22;11.60;1.00
2409;DHT22;8463;48.094;7.970;2024-03-25T09:22:48;11.90;1.00
2409;DHT22;8463;48.094;7.970;2024-03-25T09:25:16;12.10;1.00
2409;DHT22;8463;48.094;7.970;2024-03-25T09:27:48;12.30;1.00
2409;DHT22;8463;48.094;7.970;2024-03-25T09:30:15;12.40;1.00
2409;DHT22;8463;48.094;7.970;2024-03-25T09:32:41;12.30;1.00
2409;DHT22;8463;48.094;7.970;2024-03-25T09:35:08;11.90;1.00
2409;DHT22;8463;48.094;7.970;2024-03-25T09:37:34;11.70;1.00
2409;DHT22;8463;48.094;7.970;2024-03-25T09:39:59;11.60;1.00
2409;DHT22;8463;48.094;7.970;2024-03-25T09:42:27;11.50;1.00
2409;DHT22;8463;48.094;7.970;2024-03-25T09:44:56;11.30;1.00
2409;DHT22;8463;48.094;7.970;2024-03-25T09:47:22;11.20;1.00
2409;DHT22;8463;48.094;7.970;2024-03-25T09:49:49;11.30;1.00
2409;DHT22;8463;48.094;7.970;2024-03-25T09:52:18;11.50;1.00
2409;DHT22;8463;48.094;7.970;2024-03-25T09:54:44;11.70;1.00
2409;DHT22;8463;48.094;7.970;2024-03-25T09:57:10;11.70;1.00
2409;DHT22;8463;48.094;7.970;2024-03-25T09:59:36;11.70;1.00
2409;DHT22;8463;48.094;7.970;2024-03-25T10:02:03;11.70;1.00
2409;DHT22;8463;48.094;7.970;2024-03-25T10:04:29;11.60;1.00
2409;DHT22;8463;48.094;7.970;2024-03-25T10:06:55;11.60;1.00
2409;DHT22;8463;48.094;7.970;2024-03-25T10:09:21;11.60;1.00
2409;DHT22;8463;48.094;7.970;2024-03-25T10:11:48;11.70;1.00
2409;DHT22;8463;48.094;7.970;2024-03-25T10:14:18;12.00;1.00
2409;DHT22;8463;48.094;7.970;2024-03-25T10:16:48;12.20;1.00
2409;DHT22;8463;48.094;7.970;2024-03-25T10:19:17;12.50;1.00
2409;DHT22;8463;48.094;7.970;2024-03-25T10:21:42;12.50;1.00
2409;DHT22;8463;48.094;7.970;2024-03-25T10:24:08;12.70;1.00
2409;DHT22;8463;48.094;7.970;2024-03-25T10:26:34;12.90;1.00
2409;DHT22;8463;48.094;7.970;2024-03-25T10:29:06;13.00;1.00
2409;DHT22;8463;48.094;7.970;2024-03-25T10:31:32;13.00;1.00
2409;DHT22;8463;48.094;7.970;2024-03-25T10:33:58;13.10;1.00
2409;DHT22;8463;48.094;7.970;2024-03-25T10:36:25;13.20;1.00
2409;DHT22;8463;48.094;7.970;2024-03-25T10:39:00;13.30;1.00
2409;DHT22;8463;48.094;7.970;2024-03-25T10:41:28;13.40;1.00
2409;DHT22;8463;48.094;7.970;2024-03-25T10:43:55;13.50;1.00
2409;DHT22;8463;48.094;7.970;2024-03-25T10:46:22;13.50;1.00
2409;DHT22;8463;48.094;7.970;2024-03-25T10:51:56;13.50;1.00
2409;DHT22;8463;48.094;7.970;2024-03-25T10:54:23;13.60;1.00
2409;DHT22;8463;48.094;7.970;2024-03-25T10:56:49;13.40;1.00
2409;DHT22;8463;48.094;7.970;2024-03-25T10:59:18;13.40;1.00
2409;DHT22;8463;48.094;7.970;2024-03-25T11:01:44;13.60;1.00
2409;DHT22;8463;48.094;7.970;2024-03-25T11:04:10;13.70;1.00
2409;DHT22;8463;48.094;7.970;2024-03-25T11:06:36;13.90;1.00
2409;DHT22;8463;48.094;7.970;2024-03-25T11:09:03;14.00;1.00
2409;DHT22;8463;48.094;7.970;2024-03-25T11:11:33;14.20;1.00
2409;DHT22;8463;48.094;7.970;2024-03-25T11:13:59;14.30;1.00
2409;DHT22;8463;48.094;7.970;2024-03-25T11:16:31;14.10;1.00
2409;DHT22;8463;48.094;7.970;2024-03-25T11:19:03;14.00;1.00
2409;DHT22;8463;48.094;7.970;2024-03-25T11:21:29;14.00;1.00
2409;DHT22;8463;48.094;7.970;2024-03-25T11:23:54;14.00;1.00
2409;DHT22;8463;48.094;7.970;2024-03-25T11:26:22;14.10;1.00
2409;DHT22;8463;48.094;7.970;2024-03-25T11:28:49;14.30;1.00
2409;DHT22;8463;48.094;7.970;2024-03-25T11:31:15;14.50;1.00
2409;DHT22;8463;48.094;7.970;2024-03-25T11:33:42;14.60;1.00
2409;DHT22;8463;48.094;7.970;2024-03-25T11:36:09;14.80;1.00
2409;DHT22;8463;48.094;7.970;2024-03-25T11:38:34;14.70;1.00
2409;DHT22;8463;48.094;7.970;2024-03-25T11:41:02;14.70;1.00
2409;DHT22;8463;48.094;7.970;2024-03-25T11:43:28;14.80;1.00
2409;DHT22;8463;48.094;7.970;2024-03-25T11:45:54;14.70;1.00
2409;DHT22;8463;48.094;7.970;2024-03-25T11:48:19;14.60;1.00
2409;DHT22;8463;48.094;7.970;2024-03-25T11:50:46;14.70;1.00
2409;DHT22;8463;48.094;7.970;2024-03-25T11:53:13;14.80;1.00
2409;DHT22;8463;48.094;7.970;2024-03-25T11:55:40;14.80;1.00
2409;DHT22;8463;48.094;7.970;2024-03-25T11:58:05;14.90;1.00
2409;DHT22;8463;48.094;7.970;2024-03-25T12:00:31;15.10;1.00
2409;DHT22;8463;48.094;7.970;2024-03-25T12:02:57;14.80;1.00
2409;DHT22;8463;48.094;7.970;2024-03-25T12:05:23;14.70;1.00
2409;DHT22;8463;48.094;7.970;2024-03-25T12:07:49;14.90;1.00
2409;DHT22;8463;48.094;7.970;2024-03-25T12:10:16;15.10;1.00
2409;DHT22;8463;48.094;7.970;2024-03-25T12:13:00;15.30;1.00
2409;DHT22;8463;48.094;7.970;2024-03-25T12:15:26;15.00;1.00
2409;DHT22;8463;48.094;7.970;2024-03-25T12:17:52;15.10;1.00
2409;DHT22;8463;48.094;7.970;2024-03-25T12:20:18;15.20;1.00
2409;DHT22;8463;48.094;7.970;2024-03-25T12:22:44;15.40;1.00
2409;DHT22;8463;48.094;7.970;2024-03-25T12:25:10;15.50;1.00
2409;DHT22;8463;48.094;7.970;2024-03-25T12:27:37;15.50;1.00
2409;DHT22;8463;48.094;7.970;2024-03-25T12:32:42;15.60;1.00
2409;DHT22;8463;48.094;7.970;2024-03-25T12:35:16;15.70;1.00
2409;DHT22;8463;48.094;7.970;2024-03-25T12:37:43;15.80;1.00
2409;DHT22;8463;48.094;7.970;2024-03-25T12:40:26;15.90;1.00
2409;DHT22;8463;48.094;7.970;2024-03-25T12:42:53;15.90;1.00
2409;DHT22;8463;48.094;7.970;2024-03-25T12:45:20;16.00;1.00
2409;DHT22;8463;48.094;7.970;2024-03-25T12:47:46;16.00;1.00
2409;DHT22;8463;48.094;7.970;2024-03-25T12:50:11;16.00;1.00
2409;DHT22;8463;48.094;7.970;2024-03-25T12:52:37;16.00;1.00
2409;DHT22;8463;48.094;7.970;2024-03-25T12:55:03;16.10;1.00
2409;DHT22;8463;48.094;7.970;2024-03-25T12:57:29;16.00;1.00
2409;DHT22;8463;48.094;7.970;2024-03-25T12:59:55;16.00;1.00
2409;DHT22;8463;48.094;7.970;2024-03-25T13:02:20;16.00;1.00
2409;DHT22;8463;48.094;7.970;2024-03-25T13:04:46;16.10;1.00
2409;DHT22;8463;48.094;7.970;2024-03-25T13:07:12;16.20;1.00
2409;DHT22;8463;48.094;7.970;2024-03-25T13:09:38;16.20;1.00
2409;DHT22;8463;48.094;7.970;2024-03-25T13:12:04;16.30;1.00
2409;DHT22;8463;48.094;7.970;2024-03-25T13:14:30;16.30;1.00
2409;DHT22;8463;48.094;7.970;2024-03-25T13:16:55;16.20;1.00
2409;DHT22;8463;48.094;7.970;2024-03-25T13:19:21;16.10;1.00
2409;DHT22;8463;48.094;7.970;2024-03-25T13:21:47;16.00;1.00
2409;DHT22;8463;48.094;7.970;2024-03-25T13:24:13;16.00;1.00
2409;DHT22;8463;48.094;7.970;2024-03-25T13:26:39;16.00;1.00
2409;DHT22;8463;48.094;7.970;2024-03-25T13:29:04;16.10;1.00
2409;DHT22;8463;48.094;7.970;2024-03-25T13:31:30;16.20;1.00
2409;DHT22;8463;48.094;7.970;2024-03-25T13:36:22;16.20;1.00
2409;DHT22;8463;48.094;7.970;2024-03-25T13:38:47;16.30;1.00
2409;DHT22;8463;48.094;7.970;2024-03-25T13:41:13;16.50;1.00
2409;DHT22;8463;48.094;7.970;2024-03-25T13:43:43;16.50;1.00
2409;DHT22;8463;48.094;7.970;2024-03-25T13:46:08;16.50;1.00
2409;DHT22;8463;48.094;7.970;2024-03-25T13:48:34;16.30;1.00
2409;DHT22;8463;48.094;7.970;2024-03-25T13:51:00;16.60;1.00
2409;DHT22;8463;48.094;7.970;2024-03-25T13:55:52;16.60;1.00
2409;DHT22;8463;48.094;7.970;2024-03-25T13:58:17;16.50;1.00
2409;DHT22;8463;48.094;7.970;2024-03-25T14:00:43;16.60;1.00
2409;DHT22;8463;48.094;7.970;2024-03-25T14:03:08;16.60;1.00
2409;DHT22;8463;48.094;7.970;2024-03-25T14:05:34;16.60;1.00
2409;DHT22;8463;48.094;7.970;2024-03-25T14:08:00;16.70;1.00
2409;DHT22;8463;48.094;7.970;2024-03-25T14:10:25;16.60;1.00
2409;DHT22;8463;48.094;7.970;2024-03-25T14:12:51;16.40;1.00
2409;DHT22;8463;48.094;7.970;2024-03-25T14:15:17;16.20;1.00
2409;DHT22;8463;48.094;7.970;2024-03-25T14:17:42;16.10;1.00
2409;DHT22;8463;48.094;7.970;2024-03-25T14:20:09;16.40;1.00
2409;DHT22;8463;48.094;7.970;2024-03-25T14:22:35;16.40;1.00
2409;DHT22;8463;48.094;7.970;2024-03-25T14:25:00;16.40;1.00
2409;DHT22;8463;48.094;7.970;2024-03-25T14:27:26;15.80;1.00
2409;DHT22;8463;48.094;7.970;2024-03-25T14:29:52;15.80;1.00
2409;DHT22;8463;48.094;7.970;2024-03-25T14:32:22;16.10;1.00
2409;DHT22;8463;48.094;7.970;2024-03-25T14:34:48;16.10;1.00
2409;DHT22;8463;48.094;7.970;2024-03-25T14:37:14;15.80;1.00
2409;DHT22;8463;48.094;7.970;2024-03-25T14:39:40;16.00;1.00
2409;DHT22;8463;48.094;7.970;2024-03-25T14:42:08;16.60;1.00
2409;DHT22;8463;48.094;7.970;2024-03-25T14:44:36;16.80;1.00
2409;DHT22;8463;48.094;7.970;2024-03-25T14:47:02;16.70;1.00
2409;DHT22;8463;48.094;7.970;2024-03-25T14:49:28;16.60;1.00
2409;DHT22;8463;48.094;7.970;2024-03-25T14:51:53;16.70;1.00
2409;DHT22;8463;48.094;7.970;2024-03-25T14:54:19;16.80;1.00
2409;DHT22;8463;48.094;7.970;2024-03-25T14:56:46;16.20;1.00
2409;DHT22;8463;48.094;7.970;2024-03-25T14:59:11;16.20;1.00
2409;DHT22;8463;48.094;7.970;2024-03-25T15:01:37;16.30;1.00
2409;DHT22;8463;48.094;7.970;2024-03-25T15:04:04;16.60;1.00
2409;DHT22;8463;48.094;7.970;2024-03-25T15:06:30;16.50;1.00
2409;DHT22;8463;48.094;7.970;2024-03-25T15:08:59;16.40;1.00
2409;DHT22;8463;48.094;7.970;2024-03-25T15:11:25;16.60;1.00
2409;DHT22;8463;48.094;7.970;2024-03-25T15:13:52;16.80;1.00
2409;DHT22;8463;48.094;7.970;2024-03-25T15:16:18;16.80;1.00
2409;DHT22;8463;48.094;7.970;2024-03-25T15:18:44;16.90;1.00
2409;DHT22;8463;48.094;7.970;2024-03-25T15:21:10;17.00;1.00
2409;DHT22;8463;48.094;7.970;2024-03-25T15:23:36;16.80;1.00
2409;DHT22;8463;48.094;7.970;2024-03-25T15:26:02;16.90;1.00
2409;DHT22;8463;48.094;7.970;2024-03-25T15:28:30;16.90;1.00
2409;DHT22;8463;48.094;7.970;2024-03-25T15:30:56;17.00;1.00
2409;DHT22;8463;48.094;7.970;2024-03-25T15:33:25;17.00;1.00
2409;DHT22;8463;48.094;7.970;2024-03-25T15:35:51;17.20;1.00
2409;DHT22;8463;48.094;7.970;2024-03-25T15:38:17;17.30;1.00
2409;DHT22;8463;48.094;7.970;2024-03-25T15:40:43;17.30;1.00
2409;DHT22;8463;48.094;7.970;2024-03-25T15:43:11;17.20;1.00
2409;DHT22;8463;48.094;7.970;2024-03-25T15:45:37;17.20;1.00
2409;DHT22;8463;48.094;7.970;2024-03-25T15:48:03;17.20;1.00
2409;DHT22;8463;48.094;7.970;2024-03-25T15:50:30;17.10;1.00
2409;DHT22;8463;48.094;7.970;2024-03-25T15:52:56;16.80;1.00
2409;DHT22;8463;48.094;7.970;2024-03-25T15:55:21;16.80;1.00
2409;DHT22;8463;48.094;7.970;2024-03-25T15:57:47;16.90;1.00
2409;DHT22;8463;48.094;7.970;2024-03-25T16:00:13;16.90;1.00
2409;DHT22;8463;48.094;7.970;2024-03-25T16:02:39;16.90;1.00
2409;DHT22;8463;48.094;7.970;2024-03-25T16:05:05;16.80;1.00
2409;DHT22;8463;48.094;7.970;2024-03-25T16:07:30;16.80;1.00
2409;DHT22;8463;48.094;7.970;2024-03-25T16:09:57;16.80;1.00
2409;DHT22;8463;48.094;7.970;2024-03-25T16:12:23;16.60;1.00
2409;DHT22;8463;48.094;7.970;2024-03-25T16:14:49;16.60;1.00
2409;DHT22;8463;48.094;7.970;2024-03-25T16:17:15;16.30;1.00
2409;DHT22;8463;48.094;7.970;2024-03-25T16:19:40;16.40;1.00
2409;DHT22;8463;48.094;7.970;2024-03-25T16:22:06;16.40;1.00
2409;DHT22;8463;48.094;7.970;2024-03-25T16:24:32;16.40;1.00
2409;DHT22;8463;48.094;7.970;2024-03-25T16:26:57;16.60;1.00
2409;DHT22;8463;48.094;7.970;2024-03-25T16:29:23;16.70;1.00
2409;DHT22;8463;48.094;7.970;2024-03-25T16:31:50;16.70;1.00